首页
METAR-TAF:

METAR-TAF

机场 :

貝爾格勒尼古拉·特斯拉機場

贝尔格莱德, 塞尔维亚

纬度: 44-49N, 经度: 020-17E, 海拔: 96米

当前天气观测

该预报发布于37分钟前的21:30 UTC
风速3节,风向南转西南
温度 10°C
湿度 66%
气压 1023 hPa
能見度: 7000

METAR: LYBE 262130Z 20003KT 7000 NSC 10/04 Q1023 NOSIG

时间: 23:07 (22:07 UTC)

预报

该预报发布于5小时和7分钟前的17:00 UTC
预报有效从26日的 18点(UTC)到 27日的 18点(UTC)
风速4节,风向西转西南
能见度10公里或以上
1500米以下无云,无积雨云
成为
从 26日的 23点(UTC)到 27日的 01点(UTC)
能見度: 3000
轻雾
短暂存在
从 27日的 03点(UTC)到 27日的 06点(UTC)
能見度: 0300
成为
从 27日的 07点(UTC)到 27日的 09点(UTC)
风速15节,风向北转西北
能见度10公里或以上
多云层高于1000英尺
成为
从 27日的 11点(UTC)到 27日的 13点(UTC)
多云层高于3300英尺

TAF: LYBE 261700Z 2618/2718 25004KT CAVOK TX14/2618Z TN02/2705Z BECMG 2623/2701 3000 BR TEMPO 2703/2706 0300 FG BECMG 2707/2709 33015KT 9999 NSW BKN010 BECMG 2711/2713 BKN033

超过4000个机场的气象观测和天气预报(METAR&TAF报告)。

可查询的气象台以黄色和红色小点在地图上表示。

将鼠标移到小点上方,可查看气象台名称。

然后点击查看天气观测和预报。

如需切换地图:点击带黑十字的绿色按钮放大地图;点击带横线的绿色按钮缩小地图;或者点击绿色箭头查看邻近地区的地图。


METAR-TAF: